Four Corners Regional Airport
KFMN : rendu visible

Aérodrome :











RETROUVEZ-NOUS SUR...

 
LOGIN :

S'inscrire | Disclaimer

   EN    FR    IT 

 









Légende :    VFR   VFR Marginal   IFR   IFR Intensif   IFR Très Intensif
Visi : 
Plafond : 
>= 8 km
>= 3000ft
5 à 8 km
1000 à 3000 ft
1500m à 5 km
500 à 1000 ft
800 à 1500m
200 à 500 ft
< 800m
< 200 ft
Symboles :   Orages  Brouillard  Fortes neiges  Fortes précipitations  Vent > 20 kt






- Altitude de l'aérodrome : 5506 ft


KFMN - Four Corners Regional

DERNIER METAR :
  • 201053Z AUTO 25008KT 10SM CLR M03/M14 A3027 RMK AO2 SLP254 T10331144

METARs EXPIRÉS :
  • 200953Z AUTO 27007KT 10SM CLR M02/M14 A3026 RMK AO2 SLP246 T10221139
  • 200853Z AUTO 25007KT 10SM CLR M02/M13 A3025 RMK AO2 SLP243 T10221128 51019

TAF KFMN
Valide du 20 à 06h jusqu'au 21 à 06h UTC


200524Z 2006/2106 30006KT P6SM SKC
FM201300 10006KT P6SM SKC
FM202000 23006KT P6SM SKC
FM210200 08008KT P6SM FEW200



MET'MAP, la Météo Aéronautique d'un coup d'oeil ! - Copyright ORBIFLY Décembre 2007 - Disclaimer

ORBIFLY MET'MAP TEAM :

Programmation & Développement : Alexandra Zaïnal
Sur une idée originale de : Baudouin d'Aumeries
Assistance à la programmation : Marc-Olivier Méhu
Soutien technique & logistique : Manuel Goepfert

Contact : metmap@orbifly.com




SOURCES & CREDITS :

   NOAA       Earth
Advisory